Time;durP1;ratioP1;P1;durP2;ratioP2;P2;SDS_P1;SDS_P2;PMS_P1;PMS_P2;Temp;Humidity;BMP_temperature;BMP_pressure;BME280_temperature;BME280_humidity;BME280_pressure;Samples;Min_cycle;Max_cycle;Signal;HPM_P1;HPM_P2
2023/01/05 00:01:21;;;;;;;209.73;194.23;;;10.10;99.90;;;;;;5099345;28;20111;-71
2023/01/05 00:03:47;;;;;;;205.38;191.30;;;10.10;99.90;;;;;;5099302;28;20485;-71
2023/01/05 00:06:16;;;;;;;209.55;194.20;;;10.10;99.90;;;;;;5099260;28;20094;-71
2023/01/05 00:08:42;;;;;;;210.68;195.50;;;10.10;99.90;;;;;;5098922;28;20040;-71
2023/01/05 00:22:30;;;;;;;195.73;181.80;;;10.00;99.90;;;;;;5098645;28;20082;-71
2023/01/05 00:25:06;;;;;;;202.93;188.52;;;10.10;99.90;;;;;;5098558;28;20047;-71
2023/01/05 00:27:32;;;;;;;205.23;190.25;;;10.10;99.90;;;;;;5098676;28;20114;-73
2023/01/05 00:29:58;;;;;;;204.25;188.52;;;10.10;99.90;;;;;;5098795;28;20455;-71
2023/01/05 00:32:25;;;;;;;203.45;188.43;;;10.10;99.90;;;;;;5098418;28;20040;-71
2023/01/05 00:34:54;;;;;;;211.82;196.93;;;10.10;99.90;;;;;;5098608;28;20182;-72
2023/01/05 00:37:26;;;;;;;204.02;189.05;;;10.10;99.90;;;;;;5097511;28;20064;-71
2023/01/05 00:39:52;;;;;;;206.25;191.63;;;10.20;99.90;;;;;;5098139;28;20441;-71
2023/01/05 00:42:19;;;;;;;212.93;198.07;;;10.20;99.90;;;;;;5098609;28;20107;-71
2023/01/05 00:44:44;;;;;;;214.75;199.23;;;10.00;99.90;;;;;;5098483;28;20044;-71
2023/01/05 00:47:10;;;;;;;213.40;197.88;;;10.10;99.90;;;;;;5098400;28;20169;-71
2023/01/05 00:49:36;;;;;;;216.10;200.77;;;10.00;99.90;;;;;;5098389;28;20040;-71
2023/01/05 00:52:02;;;;;;;201.13;186.35;;;10.00;99.90;;;;;;5098036;28;20043;-71
2023/01/05 00:54:27;;;;;;;206.00;190.75;;;10.00;99.90;;;;;;5097561;28;20119;-71
2023/01/05 00:56:53;;;;;;;212.40;195.85;;;10.00;99.90;;;;;;5098177;28;20115;-72
2023/01/05 00:59:19;;;;;;;203.40;187.35;;;10.00;99.90;;;;;;5097911;28;20036;-71
2023/01/05 01:01:45;;;;;;;203.60;187.85;;;10.00;99.90;;;;;;5097868;28;20040;-71
2023/01/05 01:04:11;;;;;;;204.05;188.23;;;10.00;99.90;;;;;;5098126;28;20043;-71
2023/01/05 01:06:40;;;;;;;199.35;183.27;;;10.00;99.90;;;;;;5098079;28;20044;-71
2023/01/05 01:09:06;;;;;;;203.70;188.52;;;10.00;99.90;;;;;;5096694;28;20044;-72
2023/01/05 01:11:32;;;;;;;204.95;189.18;;;10.00;99.90;;;;;;5097988;28;20052;-71
2023/01/05 01:13:57;;;;;;;212.32;196.98;;;10.00;99.90;;;;;;5096956;28;20362;-71
2023/01/05 01:16:23;;;;;;;206.93;191.23;;;10.00;99.90;;;;;;5097805;28;20097;-71
2023/01/05 01:18:49;;;;;;;206.98;192.00;;;10.00;99.90;;;;;;5097823;28;20040;-72
2023/01/05 01:21:15;;;;;;;214.68;199.45;;;10.00;99.90;;;;;;5097769;28;20069;-71
2023/01/05 01:23:41;;;;;;;206.48;192.55;;;10.10;99.90;;;;;;5095997;28;20067;-71
2023/01/05 01:26:09;;;;;;;202.18;187.77;;;10.10;99.90;;;;;;5097348;28;20433;-72
2023/01/05 01:28:35;;;;;;;199.55;184.50;;;10.10;99.90;;;;;;5097380;28;20479;-71
2023/01/05 01:31:00;;;;;;;198.05;184.63;;;10.10;99.90;;;;;;5097608;28;20078;-71
2023/01/05 01:33:27;;;;;;;208.27;193.85;;;10.10;99.90;;;;;;5096627;28;20307;-71
2023/01/05 01:35:53;;;;;;;204.93;191.00;;;10.10;99.90;;;;;;5096490;28;20040;-71
2023/01/05 01:38:19;;;;;;;195.82;182.27;;;10.20;99.90;;;;;;5097307;28;20036;-71
2023/01/05 01:40:46;;;;;;;191.18;177.77;;;10.20;99.90;;;;;;5095547;28;20048;-71
2023/01/05 01:43:13;;;;;;;191.00;177.07;;;10.20;99.90;;;;;;5097372;28;20070;-71
2023/01/05 01:45:39;;;;;;;188.55;174.38;;;10.20;99.90;;;;;;5097389;28;20040;-71
2023/01/05 01:48:04;;;;;;;184.60;170.90;;;10.30;99.90;;;;;;5097305;28;20439;-71
2023/01/05 01:50:35;;;;;;;184.25;171.82;;;10.30;99.90;;;;;;5097284;28;20043;-71
2023/01/05 01:53:29;;;;;;;195.15;181.55;;;10.30;99.90;;;;;;5096590;28;20044;-71
2023/01/05 01:55:57;;;;;;;203.82;191.18;;;10.30;99.90;;;;;;5094611;28;20403;-71
2023/01/05 01:58:26;;;;;;;204.65;189.80;;;10.30;99.90;;;;;;5097131;28;20085;-71
2023/01/05 02:00:52;;;;;;;206.20;192.00;;;10.30;99.90;;;;;;5097648;28;20028;-71
2023/01/05 02:03:18;;;;;;;209.50;194.75;;;10.20;99.90;;;;;;5097063;28;20036;-72
2023/01/05 02:05:44;;;;;;;204.80;190.43;;;10.30;99.90;;;;;;5097020;28;20123;-72
2023/01/05 02:08:12;;;;;;;203.55;188.90;;;10.30;99.90;;;;;;5097014;28;20040;-71
2023/01/05 02:11:01;;;;;;;196.07;181.32;;;10.30;99.90;;;;;;5095739;28;20028;-71
2023/01/05 02:13:50;;;;;;;195.95;181.63;;;10.30;99.90;;;;;;5096944;28;20036;-71
2023/01/05 02:16:25;;;;;;;186.00;173.50;;;10.30;99.90;;;;;;5090943;28;20051;-71
2023/01/05 02:19:27;;;;;;;194.20;181.43;;;10.20;99.90;;;;;;5097087;28;20123;-71
2023/01/05 02:22:28;;;;;;;179.77;167.55;;;10.30;99.90;;;;;;5075468;28;20048;-72
2023/01/05 02:25:27;;;;;;;176.25;163.75;;;10.20;99.90;;;;;;5079959;28;20055;-72
2023/01/05 02:28:14;;;;;;;177.90;165.82;;;10.20;99.90;;;;;;5096815;28;20040;-71
2023/01/05 02:31:11;;;;;;;169.00;157.68;;;10.30;99.90;;;;;;5096509;28;20044;-71
2023/01/05 02:33:45;;;;;;;187.73;174.60;;;10.30;99.90;;;;;;5096940;28;20044;-71
2023/01/05 02:36:43;;;;;;;190.05;177.52;;;10.30;99.90;;;;;;5096652;28;20048;-72
2023/01/05 02:39:25;;;;;;;179.70;166.88;;;10.30;99.90;;;;;;5075278;28;20048;-71
2023/01/05 02:42:10;;;;;;;201.95;187.48;;;10.30;99.90;;;;;;5096250;28;20052;-72
2023/01/05 02:44:36;;;;;;;204.00;190.10;;;10.30;99.90;;;;;;5095701;28;20047;-72
2023/01/05 02:47:24;;;;;;;204.57;191.07;;;10.30;99.90;;;;;;5096550;28;20040;-71
2023/01/05 02:50:13;;;;;;;204.43;190.88;;;10.20;99.90;;;;;;5096268;28;20036;-71
2023/01/05 02:53:08;;;;;;;203.25;188.57;;;10.20;99.90;;;;;;5093789;28;20055;-71
2023/01/05 02:55:43;;;;;;;192.23;178.10;;;10.20;99.90;;;;;;5100583;28;20036;-71
2023/01/05 02:58:21;;;;;;;188.10;175.10;;;10.10;99.90;;;;;;5100559;28;20040;-71
2023/01/05 03:00:59;;;;;;;188.18;175.63;;;10.10;99.90;;;;;;5100530;28;20036;-71
2023/01/05 03:03:42;;;;;;;190.32;176.50;;;10.20;99.90;;;;;;5100216;28;20115;-72
2023/01/05 03:06:16;;;;;;;190.05;177.63;;;10.20;99.90;;;;;;5100112;28;20445;-72
2023/01/05 03:08:51;;;;;;;189.52;176.52;;;10.20;99.90;;;;;;5100065;28;20444;-72
2023/01/05 03:14:33;;;;;;;195.23;181.65;;;10.30;99.90;;;;;;5100220;28;20063;-72
2023/01/05 03:17:03;;;;;;;198.15;183.75;;;10.20;99.90;;;;;;5100285;28;20056;-71
2023/01/05 03:19:38;;;;;;;198.43;184.60;;;10.20;99.90;;;;;;5099641;28;20036;-71
2023/01/05 03:36:30;;;;;;;198.20;184.57;;;10.20;99.90;;;;;;5099819;28;20112;-71
2023/01/05 03:38:57;;;;;;;197.00;183.25;;;10.20;99.90;;;;;;5099744;28;20115;-71
2023/01/05 03:41:26;;;;;;;201.63;188.07;;;10.30;99.90;;;;;;5099361;28;20048;-71
2023/01/05 03:43:52;;;;;;;200.45;186.50;;;10.20;99.90;;;;;;5099671;28;20061;-72
2023/01/05 03:46:20;;;;;;;191.07;178.15;;;10.30;99.90;;;;;;5099655;28;20123;-71
2023/01/05 03:48:47;;;;;;;195.52;182.50;;;10.30;99.90;;;;;;5099637;28;20068;-71
2023/01/05 03:51:15;;;;;;;202.13;188.30;;;10.30;99.90;;;;;;5092435;28;20326;-71
2023/01/05 03:53:41;;;;;;;201.63;187.73;;;10.20;99.90;;;;;;5097250;28;20040;-71
2023/01/05 03:56:07;;;;;;;206.88;192.93;;;10.30;99.90;;;;;;5098588;28;20048;-71
2023/01/05 03:58:32;;;;;;;198.02;184.20;;;10.30;99.90;;;;;;5099405;28;20042;-72
2023/01/05 04:00:58;;;;;;;207.95;193.45;;;10.30;99.90;;;;;;5099377;28;20376;-71
2023/01/05 04:03:24;;;;;;;207.93;193.60;;;10.40;99.90;;;;;;5097368;28;20036;-72
2023/01/05 04:05:49;;;;;;;206.70;191.93;;;10.30;99.90;;;;;;5099250;28;20040;-72
2023/01/05 04:08:15;;;;;;;210.02;195.15;;;10.40;99.90;;;;;;5099258;28;20126;-71
2023/01/05 04:10:41;;;;;;;206.32;192.68;;;10.30;99.90;;;;;;5098865;28;20429;-71
2023/01/05 04:13:07;;;;;;;213.25;198.73;;;10.30;99.90;;;;;;5099112;28;20092;-72
2023/01/05 04:15:33;;;;;;;205.35;191.10;;;10.30;99.90;;;;;;5097996;28;20113;-72
2023/01/05 04:17:58;;;;;;;204.90;190.55;;;10.30;99.90;;;;;;5098785;28;20337;-71
2023/01/05 04:20:24;;;;;;;207.07;192.65;;;10.20;99.90;;;;;;5099004;28;20035;-71
2023/01/05 04:22:50;;;;;;;205.00;190.65;;;10.20;99.90;;;;;;5098655;28;20148;-72
2023/01/05 04:25:16;;;;;;;200.07;186.43;;;10.30;99.90;;;;;;5098500;28;20044;-72
2023/01/05 04:27:41;;;;;;;200.80;186.40;;;10.30;99.90;;;;;;5098842;28;20044;-72
2023/01/05 04:30:08;;;;;;;198.35;184.88;;;10.30;99.90;;;;;;5098815;28;20055;-71
2023/01/05 04:32:33;;;;;;;195.75;183.02;;;10.40;99.90;;;;;;5098722;28;20055;-72
2023/01/05 04:34:59;;;;;;;196.65;183.75;;;10.40;99.90;;;;;;5098642;28;20040;-71
2023/01/05 04:37:25;;;;;;;183.55;171.55;;;10.50;99.90;;;;;;5098644;28;20032;-71
2023/01/05 04:39:50;;;;;;;174.82;163.02;;;10.50;99.90;;;;;;5098139;28;20044;-72
2023/01/05 04:42:16;;;;;;;180.27;168.25;;;10.50;99.90;;;;;;5098603;28;20048;-72
2023/01/05 04:44:41;;;;;;;170.07;158.43;;;10.50;99.90;;;;;;5097448;28;20044;-71
2023/01/05 04:47:07;;;;;;;171.63;159.77;;;10.60;99.90;;;;;;5097505;28;20040;-71
2023/01/05 04:49:33;;;;;;;168.02;156.75;;;10.60;99.90;;;;;;5098433;28;20111;-71
2023/01/05 04:51:58;;;;;;;174.65;163.27;;;10.50;99.90;;;;;;5098051;28;20040;-71
2023/01/05 04:54:24;;;;;;;177.13;164.63;;;10.50;99.90;;;;;;5097947;28;20039;-71
2023/01/05 04:56:50;;;;;;;169.32;157.90;;;10.60;99.90;;;;;;5098196;28;20399;-71
2023/01/05 04:59:15;;;;;;;160.23;149.57;;;10.50;99.90;;;;;;5097894;28;20040;-71
2023/01/05 05:01:41;;;;;;;170.32;157.95;;;10.40;99.90;;;;;;5096928;28;20075;-71
2023/01/05 05:04:07;;;;;;;157.40;146.40;;;10.50;99.90;;;;;;5097841;28;20040;-71
2023/01/05 05:06:32;;;;;;;159.38;148.63;;;10.50;99.90;;;;;;5097732;28;20051;-72
2023/01/05 05:08:58;;;;;;;157.32;146.80;;;10.50;99.90;;;;;;5096763;28;20044;-71
2023/01/05 05:11:24;;;;;;;153.32;142.52;;;10.60;99.90;;;;;;5097650;28;20040;-71
2023/01/05 05:13:49;;;;;;;154.63;145.02;;;10.60;99.90;;;;;;5096949;28;20040;-71
2023/01/05 05:16:15;;;;;;;150.35;140.25;;;10.60;99.90;;;;;;5097881;28;20058;-72
2023/01/05 05:18:41;;;;;;;162.48;152.00;;;10.60;99.90;;;;;;5097874;28;20044;-71
2023/01/05 05:21:06;;;;;;;163.10;152.65;;;10.70;99.90;;;;;;5097541;28;20040;-71
2023/01/05 05:23:32;;;;;;;167.88;156.98;;;10.80;99.90;;;;;;5097125;28;20032;-72
2023/01/05 05:25:58;;;;;;;170.05;159.02;;;10.70;99.90;;;;;;5097717;28;20040;-71
2023/01/05 05:28:26;;;;;;;170.73;158.90;;;10.80;99.90;;;;;;5096711;28;20035;-71
2023/01/05 05:30:54;;;;;;;160.88;149.80;;;10.70;99.90;;;;;;5097608;28;20329;-71
2023/01/05 05:33:20;;;;;;;162.80;152.77;;;10.70;99.90;;;;;;5097267;28;20510;-71
2023/01/05 05:35:45;;;;;;;160.27;149.07;;;10.60;99.90;;;;;;5097488;28;20075;-71
2023/01/05 05:38:11;;;;;;;160.02;149.30;;;10.60;99.90;;;;;;5097469;28;20126;-71
2023/01/05 05:40:37;;;;;;;173.00;161.38;;;10.60;99.90;;;;;;5097134;28;20093;-71
2023/01/05 05:43:02;;;;;;;180.93;168.95;;;10.60;99.90;;;;;;5097420;28;20094;-72
2023/01/05 05:45:28;;;;;;;188.18;175.63;;;10.60;99.90;;;;;;5079594;28;20417;-71
2023/01/05 05:47:54;;;;;;;191.85;178.35;;;10.60;99.90;;;;;;5097628;28;20046;-71
2023/01/05 05:50:19;;;;;;;187.00;173.15;;;10.60;99.90;;;;;;5097297;28;20046;-71
2023/01/05 05:52:45;;;;;;;186.30;172.73;;;10.60;99.90;;;;;;5097282;28;20066;-71
2023/01/05 05:55:11;;;;;;;200.10;185.90;;;10.60;99.90;;;;;;5096791;28;20311;-71
2023/01/05 05:57:36;;;;;;;196.65;183.50;;;10.50;99.90;;;;;;5096867;28;20059;-71
2023/01/05 06:00:03;;;;;;;185.55;173.35;;;10.50;99.90;;;;;;5096831;28;20044;-71
2023/01/05 06:02:29;;;;;;;192.45;179.95;;;10.40;99.90;;;;;;5096952;28;20417;-71
2023/01/05 06:04:55;;;;;;;187.85;176.05;;;10.50;99.90;;;;;;5097086;28;20070;-71
2023/01/05 06:07:20;;;;;;;186.50;173.82;;;10.50;99.90;;;;;;5097033;28;20409;-72
2023/01/05 06:09:46;;;;;;;191.55;178.30;;;10.50;99.90;;;;;;5096986;28;20338;-72
2023/01/05 06:12:12;;;;;;;170.43;158.95;;;10.60;99.90;;;;;;5096958;28;20040;-71
2023/01/05 06:14:37;;;;;;;176.73;164.63;;;10.70;99.90;;;;;;5096859;28;20051;-71
2023/01/05 06:17:03;;;;;;;184.02;171.63;;;10.60;99.90;;;;;;5096864;28;20040;-71
2023/01/05 06:19:29;;;;;;;176.15;164.85;;;10.60;99.90;;;;;;5096929;28;20115;-71
2023/01/05 06:21:54;;;;;;;182.65;170.43;;;10.60;99.90;;;;;;5096864;28;20032;-72
2023/01/05 06:24:20;;;;;;;169.13;158.32;;;10.60;99.90;;;;;;5096418;28;20040;-71
2023/01/05 06:26:46;;;;;;;175.48;163.88;;;10.60;99.90;;;;;;5096162;28;20077;-71
2023/01/05 06:29:11;;;;;;;178.68;167.05;;;10.60;99.90;;;;;;5096758;28;20079;-71
2023/01/05 06:31:37;;;;;;;172.68;161.65;;;10.60;99.90;;;;;;5096770;28;20036;-71
2023/01/05 06:34:03;;;;;;;179.38;167.27;;;10.60;99.90;;;;;;5096772;28;20115;-71
2023/01/05 06:36:28;;;;;;;173.32;161.93;;;10.60;99.90;;;;;;5096661;28;20357;-71
2023/01/05 06:38:54;;;;;;;177.55;165.70;;;10.60;99.90;;;;;;5096688;28;20028;-71
2023/01/05 06:41:20;;;;;;;180.65;168.15;;;10.60;99.90;;;;;;5096322;28;20453;-71
2023/01/05 06:43:45;;;;;;;180.65;167.65;;;10.60;99.90;;;;;;5096632;28;20047;-72
2023/01/05 06:46:11;;;;;;;198.85;185.93;;;10.60;99.90;;;;;;5096582;28;20423;-72
2023/01/05 06:48:37;;;;;;;198.02;183.82;;;10.50;99.90;;;;;;5096338;28;20036;-71
2023/01/05 06:51:02;;;;;;;198.52;184.10;;;10.40;99.90;;;;;;5096581;28;20043;-71
2023/01/05 06:53:28;;;;;;;190.65;177.02;;;10.50;99.90;;;;;;5096156;28;20036;-71
2023/01/05 06:55:54;;;;;;;192.55;178.48;;;10.50;99.90;;;;;;5096421;28;20319;-71
2023/01/05 06:58:19;;;;;;;189.18;175.32;;;10.50;99.90;;;;;;5095199;28;20044;-72
2023/01/05 07:00:45;;;;;;;196.00;181.30;;;10.50;99.90;;;;;;5096149;28;20044;-71
2023/01/05 07:03:12;;;;;;;191.35;178.07;;;10.50;99.90;;;;;;5095144;28;20044;-71
2023/01/05 07:05:38;;;;;;;192.02;177.43;;;10.40;99.90;;;;;;5095177;28;20051;-71
2023/01/05 07:08:04;;;;;;;185.82;171.82;;;10.50;99.90;;;;;;5096433;28;20379;-72
2023/01/05 07:10:30;;;;;;;193.18;179.70;;;10.40;99.90;;;;;;5096148;28;20036;-72
2023/01/05 07:12:56;;;;;;;182.15;168.85;;;10.50;99.90;;;;;;5096360;28;20066;-71
2023/01/05 07:15:21;;;;;;;182.65;169.18;;;10.50;99.90;;;;;;5095986;28;20058;-71
2023/01/05 07:17:47;;;;;;;189.70;176.70;;;10.50;99.90;;;;;;5096357;28;20063;-71
2023/01/05 07:20:13;;;;;;;178.57;165.60;;;10.50;99.90;;;;;;5095397;28;20406;-71
2023/01/05 07:22:38;;;;;;;170.95;157.65;;;10.50;99.90;;;;;;5094948;28;20043;-71
2023/01/05 07:25:04;;;;;;;180.43;167.90;;;10.50;99.90;;;;;;5095915;28;20036;-72
2023/01/05 07:27:30;;;;;;;186.60;173.93;;;10.50;99.90;;;;;;5095005;28;20075;-71
2023/01/05 07:29:56;;;;;;;185.65;173.07;;;10.50;99.90;;;;;;5095921;28;20535;-71
2023/01/05 07:32:22;;;;;;;185.68;173.35;;;10.50;99.90;;;;;;5094932;28;20044;-71
2023/01/05 07:34:47;;;;;;;179.82;167.27;;;10.40;99.90;;;;;;5095766;28;20051;-71
2023/01/05 07:37:13;;;;;;;176.60;164.18;;;10.40;99.90;;;;;;5096857;28;20031;-71
2023/01/05 07:39:39;;;;;;;191.35;177.80;;;10.40;99.90;;;;;;5099616;28;20031;-71
2023/01/05 07:42:05;;;;;;;183.23;169.88;;;10.50;99.90;;;;;;5099562;28;20048;-71
2023/01/05 07:44:30;;;;;;;179.65;167.80;;;10.50;99.90;;;;;;5099736;28;20032;-71
2023/01/05 07:46:57;;;;;;;184.18;171.13;;;10.40;99.90;;;;;;5099687;28;20044;-72
2023/01/05 07:49:23;;;;;;;185.52;172.38;;;10.40;99.90;;;;;;5099644;28;20115;-74
2023/01/05 07:51:49;;;;;;;169.70;157.27;;;10.50;99.90;;;;;;5099376;28;20509;-71
2023/01/05 07:54:14;;;;;;;177.35;165.30;;;10.50;99.90;;;;;;5098939;28;20039;-71
2023/01/05 07:56:40;;;;;;;178.25;166.40;;;10.50;99.90;;;;;;5099116;28;20044;-76
2023/01/05 07:59:06;;;;;;;176.05;164.32;;;10.50;99.90;;;;;;5099455;28;20040;-76
2023/01/05 08:01:32;;;;;;;172.73;160.57;;;10.40;99.90;;;;;;5099406;28;20036;-75
2023/01/05 08:03:57;;;;;;;174.63;162.43;;;10.40;99.90;;;;;;5098002;28;20089;-76
2023/01/05 08:06:24;;;;;;;172.52;161.05;;;10.40;99.90;;;;;;5099242;28;20124;-76
2023/01/05 08:08:49;;;;;;;166.43;154.43;;;10.40;99.90;;;;;;5098972;28;20040;-75
2023/01/05 08:11:17;;;;;;;177.60;166.25;;;10.40;99.90;;;;;;5099226;28;20101;-77
2023/01/05 08:13:59;;;;;;;173.63;161.60;;;10.40;99.90;;;;;;5098835;28;20052;-77
2023/01/05 08:16:26;;;;;;;179.40;166.45;;;10.50;99.90;;;;;;5097817;28;20341;-77
2023/01/05 08:18:51;;;;;;;183.32;170.63;;;10.50;99.90;;;;;;5097969;28;20048;-76
2023/01/05 08:21:17;;;;;;;181.35;168.70;;;10.50;99.90;;;;;;5099058;28;20329;-68
2023/01/05 08:23:44;;;;;;;195.50;181.85;;;10.50;99.90;;;;;;5082901;28;20036;-73
2023/01/05 08:26:18;;;;;;;191.35;178.73;;;10.50;99.90;;;;;;5094268;28;20044;-69
2023/01/05 08:28:44;;;;;;;189.50;177.05;;;10.40;99.90;;;;;;5095581;28;20122;-72
2023/01/05 08:31:13;;;;;;;188.45;174.73;;;10.50;99.90;;;;;;5097582;28;20109;-70
2023/01/05 08:33:39;;;;;;;190.32;176.55;;;10.50;99.90;;;;;;5097870;28;20032;-69
2023/01/05 08:36:09;;;;;;;190.35;176.75;;;10.50;99.90;;;;;;5098372;28;20315;-70
2023/01/05 08:38:35;;;;;;;183.85;171.25;;;10.50;99.90;;;;;;5098677;28;20036;-69
2023/01/05 08:41:00;;;;;;;190.05;177.30;;;10.60;99.90;;;;;;5098237;28;20501;-69
2023/01/05 08:43:26;;;;;;;187.55;174.23;;;10.60;99.90;;;;;;5097308;28;20051;-73
2023/01/05 08:45:52;;;;;;;187.23;174.40;;;10.50;99.90;;;;;;5098835;28;20127;-70
2023/01/05 08:48:18;;;;;;;180.80;168.68;;;10.50;99.90;;;;;;5098282;28;20071;-69
2023/01/05 08:50:43;;;;;;;169.75;158.68;;;10.50;99.90;;;;;;5098443;28;20089;-69
2023/01/05 08:53:10;;;;;;;182.15;170.27;;;10.60;99.90;;;;;;5098370;28;20047;-70
2023/01/05 08:55:35;;;;;;;186.02;173.82;;;10.60;99.90;;;;;;5097950;28;20123;-69
2023/01/05 08:58:01;;;;;;;182.82;170.30;;;10.60;99.90;;;;;;5098318;28;20071;-69
2023/01/05 09:00:27;;;;;;;184.57;172.18;;;10.60;99.90;;;;;;5098150;28;20028;-69
2023/01/05 09:02:53;;;;;;;186.65;173.45;;;10.60;99.90;;;;;;5097214;28;20032;-69
2023/01/05 09:05:18;;;;;;;183.98;170.32;;;10.50;99.90;;;;;;5096975;28;20048;-69
2023/01/05 09:07:44;;;;;;;180.18;167.82;;;10.40;99.90;;;;;;5098176;28;20054;-68
2023/01/05 09:10:10;;;;;;;184.07;172.30;;;10.40;99.90;;;;;;5098042;28;20084;-69
2023/01/05 09:12:37;;;;;;;182.07;170.38;;;10.40;99.90;;;;;;5096965;28;20044;-77
2023/01/05 09:15:04;;;;;;;185.63;173.75;;;10.40;99.90;;;;;;5096971;28;20036;-77
2023/01/05 09:17:31;;;;;;;183.88;171.57;;;10.20;99.90;;;;;;5080180;28;20036;-80
2023/01/05 09:19:57;;;;;;;184.13;171.43;;;10.10;99.90;;;;;;5130833;27;20066;-75
2023/01/05 09:22:22;;;;;;;182.90;170.82;;;10.20;99.90;;;;;;5097878;28;20079;-80
2023/01/05 09:24:48;;;;;;;180.98;168.55;;;10.30;99.90;;;;;;5096293;28;20043;-81
2023/01/05 09:27:14;;;;;;;185.85;173.85;;;10.30;99.90;;;;;;5079575;28;20470;-81
2023/01/05 09:29:39;;;;;;;186.75;175.23;;;10.30;99.90;;;;;;5096426;28;20337;-80
2023/01/05 09:32:05;;;;;;;185.80;173.32;;;10.20;99.90;;;;;;5079754;28;20128;-71
2023/01/05 09:34:31;;;;;;;182.73;170.75;;;10.20;99.90;;;;;;5097574;28;20040;-72
2023/01/05 09:36:57;;;;;;;179.68;168.35;;;10.40;99.90;;;;;;5097474;28;20036;-74
2023/01/05 09:39:23;;;;;;;181.75;169.32;;;10.50;99.90;;;;;;5079320;28;20059;-72
2023/01/05 09:41:54;;;;;;;177.43;165.00;;;10.70;99.90;;;;;;5097062;28;20055;-72
2023/01/05 09:44:36;;;;;;;184.45;172.20;;;10.80;99.90;;;;;;5097484;28;20043;-76
2023/01/05 09:47:17;;;;;;;180.35;168.88;;;10.50;99.90;;;;;;5097084;28;20511;-80
2023/01/05 09:49:44;;;;;;;184.75;173.13;;;10.50;99.90;;;;;;5097054;28;20051;-80
2023/01/05 09:52:11;;;;;;;185.63;174.07;;;10.50;99.90;;;;;;5097289;28;20166;-80
2023/01/05 09:54:38;;;;;;;187.57;174.98;;;10.40;99.90;;;;;;5096853;28;20040;-88
2023/01/05 09:57:13;;;;;;;185.88;174.15;;;10.40;99.90;;;;;;5078973;28;20127;-79
2023/01/05 09:59:51;;;;;;;187.73;174.68;;;10.30;99.90;;;;;;5096793;28;20144;-80
2023/01/05 10:02:19;;;;;;;180.45;168.57;;;10.40;99.90;;;;;;5097183;28;20040;-70
2023/01/05 10:04:46;;;;;;;172.13;160.55;;;10.40;99.90;;;;;;5096770;28;20433;-70
2023/01/05 10:07:39;;;;;;;178.00;166.57;;;10.60;99.90;;;;;;5097010;28;20044;-71
2023/01/05 10:10:16;;;;;;;185.93;174.00;;;10.60;99.90;;;;;;5096381;28;20048;-70
2023/01/05 10:13:01;;;;;;;192.27;180.82;;;10.70;99.90;;;;;;5096025;28;20062;-71
2023/01/05 10:15:33;;;;;;;195.25;183.73;;;10.80;99.90;;;;;;5096652;28;20040;-71
2023/01/05 10:18:07;;;;;;;181.60;170.68;;;10.80;99.90;;;;;;5096956;28;20043;-71
2023/01/05 10:20:45;;;;;;;170.90;159.95;;;10.80;99.90;;;;;;5096606;28;20036;-71
2023/01/05 10:23:39;;;;;;;180.10;168.98;;;10.70;99.90;;;;;;5096639;28;20046;-71
2023/01/05 10:26:10;;;;;;;183.07;171.63;;;10.80;99.90;;;;;;5096510;28;20440;-71
2023/01/05 10:29:00;;;;;;;159.65;150.68;;;10.70;99.90;;;;;;5096749;28;20040;-71
2023/01/05 10:31:38;;;;;;;148.02;139.27;;;10.60;99.90;;;;;;5094958;28;20349;-71
2023/01/05 10:34:19;;;;;;;149.77;140.85;;;10.60;99.90;;;;;;5096751;28;20046;-70
2023/01/05 10:37:03;;;;;;;128.65;121.13;;;10.60;99.90;;;;;;5095310;28;20441;-71
2023/01/05 10:39:47;;;;;;;133.57;125.45;;;10.60;99.90;;;;;;5096500;28;20371;-71
2023/01/05 10:42:45;;;;;;;132.77;125.35;;;10.60;99.90;;;;;;5096673;28;20036;-71
2023/01/05 10:45:18;;;;;;;132.88;125.20;;;10.70;99.90;;;;;;5096663;28;20078;-70
2023/01/05 10:47:45;;;;;;;134.85;127.28;;;10.70;99.90;;;;;;5095563;28;20371;-70
2023/01/05 10:50:38;;;;;;;139.77;131.60;;;10.70;99.90;;;;;;5095613;28;20040;-71
2023/01/05 10:53:10;;;;;;;137.70;129.77;;;10.70;99.90;;;;;;5096563;28;20044;-74
2023/01/05 10:55:56;;;;;;;146.52;138.30;;;10.80;99.90;;;;;;5094807;28;20131;-74
2023/01/05 10:58:27;;;;;;;149.60;140.90;;;11.00;99.90;;;;;;5096733;28;20123;-71
2023/01/05 11:00:57;;;;;;;157.00;147.73;;;11.10;99.90;;;;;;5096198;28;20070;-72
2023/01/05 11:03:44;;;;;;;159.25;149.77;;;11.10;99.90;;;;;;5096453;28;20103;-71
2023/01/05 11:06:22;;;;;;;162.38;151.75;;;11.10;99.90;;;;;;5096471;28;20051;-72
2023/01/05 11:08:49;;;;;;;163.32;153.38;;;10.90;99.90;;;;;;5096442;28;20048;-72
2023/01/05 11:11:25;;;;;;;162.15;152.15;;;10.90;99.90;;;;;;5097119;28;20035;-70
2023/01/05 11:13:56;;;;;;;165.00;155.02;;;11.00;99.90;;;;;;5100142;28;20054;-71
2023/01/05 11:16:23;;;;;;;172.50;161.93;;;10.90;99.90;;;;;;5099872;28;20048;-71
2023/01/05 11:18:51;;;;;;;172.70;162.50;;;11.00;99.90;;;;;;5098988;28;20086;-71
2023/01/05 11:21:22;;;;;;;169.20;159.38;;;11.00;99.90;;;;;;5099102;28;20302;-71
2023/01/05 11:23:54;;;;;;;172.60;162.30;;;11.00;99.90;;;;;;5099689;28;20083;-71
2023/01/05 11:26:35;;;;;;;178.00;167.20;;;11.20;99.90;;;;;;5100067;28;20082;-72
2023/01/05 11:29:03;;;;;;;176.07;165.43;;;11.20;99.90;;;;;;5100015;28;20051;-71
2023/01/05 11:31:45;;;;;;;177.70;167.02;;;11.10;99.90;;;;;;5099657;28;20075;-71
2023/01/05 11:34:29;;;;;;;179.95;168.52;;;11.10;99.90;;;;;;5100017;28;20123;-71
2023/01/05 11:37:05;;;;;;;171.68;161.43;;;11.00;99.90;;;;;;5099742;28;20101;-71
2023/01/05 11:39:58;;;;;;;180.60;169.75;;;11.10;99.90;;;;;;5099680;28;20036;-74
2023/01/05 11:42:24;;;;;;;181.15;170.60;;;11.10;99.90;;;;;;5099799;28;20040;-72
2023/01/05 11:44:58;;;;;;;185.32;173.65;;;11.20;99.90;;;;;;5098373;28;20089;-72
2023/01/05 11:47:29;;;;;;;186.88;175.65;;;11.10;99.90;;;;;;5099663;28;20044;-72
2023/01/05 11:50:23;;;;;;;177.35;167.02;;;11.10;99.90;;;;;;5099596;28;20032;-71
2023/01/05 11:52:52;;;;;;;186.52;175.68;;;11.10;99.90;;;;;;5099623;28;20047;-76
2023/01/05 11:55:33;;;;;;;183.70;173.05;;;11.10;99.90;;;;;;5098715;28;20040;-71
2023/01/05 11:58:14;;;;;;;189.20;177.32;;;11.20;99.90;;;;;;5099460;28;20040;-71
2023/01/05 12:01:04;;;;;;;185.32;174.55;;;11.40;99.90;;;;;;5099403;28;20085;-75
2023/01/05 12:03:57;;;;;;;193.13;180.63;;;11.40;99.90;;;;;;5099432;28;20119;-72
2023/01/05 12:06:31;;;;;;;185.63;174.57;;;11.40;99.90;;;;;;5087823;28;20040;-71
2023/01/05 12:09:17;;;;;;;180.52;169.63;;;11.30;99.90;;;;;;5094497;28;20036;-72
2023/01/05 12:12:01;;;;;;;176.97;166.43;;;11.40;99.90;;;;;;5084656;28;20044;-71
2023/01/05 12:14:39;;;;;;;177.23;166.23;;;11.40;99.90;;;;;;5091015;28;20394;-72
2023/01/05 12:17:12;;;;;;;168.55;157.52;;;11.40;99.90;;;;;;5077695;28;20426;-72
2023/01/05 12:20:16;;;;;;;167.43;158.15;;;11.40;99.90;;;;;;5078920;28;20052;-73
2023/01/05 12:23:07;;;;;;;157.23;147.90;;;11.50;99.90;;;;;;5076327;28;20052;-71
2023/01/05 12:26:03;;;;;;;157.82;148.27;;;11.50;99.90;;;;;;5110995;28;20043;-71
2023/01/05 12:28:46;;;;;;;156.82;147.73;;;11.50;99.90;;;;;;5078660;28;20044;-71
2023/01/05 12:31:15;;;;;;;153.63;145.13;;;11.70;99.90;;;;;;5111140;28;20091;-75
2023/01/05 12:34:01;;;;;;;147.07;138.23;;;11.80;99.90;;;;;;5078527;28;20128;-70
2023/01/05 12:36:43;;;;;;;144.27;135.77;;;11.70;99.90;;;;;;5078579;28;20051;-71
2023/01/05 12:39:26;;;;;;;135.35;127.57;;;11.60;99.90;;;;;;5078491;28;20032;-71
2023/01/05 12:42:03;;;;;;;135.60;127.65;;;11.50;99.90;;;;;;5078080;28;20444;-71
2023/01/05 12:44:45;;;;;;;127.28;119.43;;;11.50;99.90;;;;;;5078446;28;20411;-71
2023/01/05 12:47:39;;;;;;;130.80;123.20;;;11.50;99.90;;;;;;5078330;28;20040;-71
2023/01/05 12:50:29;;;;;;;129.95;122.93;;;11.50;99.90;;;;;;5078265;28;20079;-71
2023/01/05 12:53:21;;;;;;;136.98;128.68;;;11.60;99.90;;;;;;5078177;28;20091;-70
2023/01/05 12:55:52;;;;;;;138.23;129.32;;;11.60;99.90;;;;;;5077758;28;20045;-71